Date,TemperatureHighF,TemperatureAvgF,TemperatureLowF,DewpointHighF,DewpointAvgF,DewpointLowF,HumidityHigh,HumidityAvg,HumidityLow,PressureMaxIn,PressureMinIn,WindSpeedMaxMPH,WindSpeedAvgMPH,GustSpeedMaxMPH,PrecipitationSumIn
2013-1-23,48,42,36,-100,-100,-100,0,0,100,0.00,40.00,26,17,32,0.00
2013-1-24,43,37,30,-100,-100,-100,0,0,100,0.00,40.00,58,33,65,0.00
2013-1-25,41,33,27,-100,-100,-100,0,0,100,0.00,40.00,36,18,41,0.00
2013-1-26,43,35,27,-100,-100,-100,0,0,100,0.00,40.00,27,11,34,0.00
2013-1-27,43,32,25,-100,-100,-100,0,0,100,0.00,40.00,28,14,37,0.00
2013-1-28,30,23,10,-100,-100,-100,0,0,100,0.00,40.00,35,16,41,0.00
2013-1-29,14,9,3,-100,-100,-100,0,0,100,0.00,40.00,38,25,40,0.00
2013-1-30,23,13,1,-100,-100,-100,0,0,100,0.00,40.00,53,37,65,0.00
2013-1-31,27,25,19,-100,-100,-100,0,0,100,0.00,40.00,50,39,55,0.00
2013-2-1,28,25,23,-100,-100,-100,0,0,100,0.00,40.00,50,36,57,0.00
2013-2-2,36,26,18,-100,-100,-100,0,0,100,0.00,40.00,52,32,54,0.00
2013-2-3,39,29,23,-100,-100,-100,0,0,100,0.00,40.00,39,22,51,0.00
2013-2-4,36,29,23,-100,-100,-100,0,0,100,0.00,40.00,51,33,56,0.00
2013-2-5,39,32,25,-100,-100,-100,0,0,100,0.00,40.00,36,23,51,0.00
2013-2-6,36,29,21,-100,-100,-100,0,0,100,0.00,40.00,25,17,38,0.00
2013-2-7,36,24,14,-100,-100,-100,0,0,100,0.00,40.00,28,15,32,0.00
2013-2-8,37,28,7,-100,-100,-100,0,0,100,0.00,40.00,25,9,30,0.00
2013-2-9,23,20,14,-100,-100,-100,0,0,100,0.00,40.00,28,12,33,0.00
2013-2-10,14,12,3,-100,-100,-100,0,0,100,0.00,40.00,32,6,41,0.00
2013-2-11,16,5,-6,-100,-100,-100,0,0,100,0.00,40.00,33,-459,37,0.00
2013-2-12,19,13,5,-100,-100,-100,0,0,100,0.00,40.00,50,28,54,0.00
2013-2-13,25,20,14,-100,-100,-100,0,0,100,0.00,40.00,53,39,61,0.00
2013-2-14,23,16,10,-100,-100,-100,0,0,100,0.00,40.00,40,22,50,0.00
2013-2-15,21,16,7,-100,-100,-100,0,0,100,0.00,40.00,50,29,55,0.00
2013-2-16,36,28,19,-100,-100,-100,0,0,100,0.00,40.00,55,38,61,0.00
2013-2-17,37,28,18,-100,-100,-100,0,0,100,0.00,40.00,41,26,51,0.00
2013-2-18,19,15,9,-100,-100,-100,0,0,100,0.00,40.00,38,23,42,0.00
2013-2-19,25,17,-6,-100,-100,-100,0,0,100,0.00,40.00,18,9,23,0.00
2013-2-20,34,18,5,-100,-100,-100,0,0,100,0.00,40.00,16,-358,23,0.00
2013-2-21,18,13,9,-100,-100,-100,0,0,100,0.00,40.00,32,-967,37,0.00
2013-2-22,19,13,10,-100,-100,-100,0,0,100,0.00,40.00,50,28,52,0.00
2013-2-23,28,19,12,-100,-100,-100,0,0,100,0.00,40.00,42,21,52,0.00
2013-2-24,19,14,7,-100,-100,-100,0,0,100,0.00,40.00,37,18,40,0.00
2013-2-25,23,14,1,-100,-100,-100,0,0,100,0.00,40.00,33,21,42,0.00
2013-2-26,19,15,10,-100,-100,-100,0,0,100,0.00,40.00,36,27,44,0.00
2013-2-27,19,11,5,-100,-100,-100,0,0,100,0.00,40.00,38,22,43,0.00
2013-2-28,23,16,10,-100,-100,-100,0,0,100,0.00,40.00,48,33,52,0.00
2013-3-1,32,24,16,-100,-100,-100,0,0,100,0.00,40.00,40,28,49,0.00
2013-3-2,41,32,27,-100,-100,-100,0,0,100,0.00,40.00,51,31,52,0.00
2013-3-3,41,36,30,-100,-100,-100,0,0,100,0.00,40.00,52,28,52,0.00
2013-3-4,30,18,9,-100,-100,-100,0,0,100,0.00,40.00,50,30,57,0.00
2013-3-5,39,21,9,-100,-100,-100,0,0,100,0.00,40.00,33,19,39,0.00
2013-3-6,48,35,12,-100,-100,-100,0,0,100,0.00,40.00,33,12,40,0.00
2013-3-7,48,38,28,-100,-100,-100,0,0,100,0.00,40.00,17,9,31,0.00
2013-3-8,43,30,23,-100,-100,-100,0,0,100,0.00,40.00,10,4,14,0.00
2013-3-9,25,21,14,-100,-100,-100,0,0,100,0.00,40.00,41,23,50,0.00
2013-3-10,30,22,12,-100,-100,-100,0,0,100,0.00,40.00,34,26,44,0.00
2013-3-11,30,26,21,-100,-100,-100,0,0,100,0.00,40.00,50,31,59,0.00
2013-3-12,30,24,16,-100,-100,-100,0,0,100,0.00,40.00,35,17,40,0.00
2013-3-13,43,33,28,-100,-100,-100,0,0,100,0.00,40.00,50,33,58,0.00
2013-3-14,50,41,34,-100,-100,-100,0,0,100,0.00,40.00,33,18,41,0.00
2013-3-15,54,47,37,-100,-100,-100,0,0,100,0.00,40.00,55,35,59,0.00
2013-3-16,45,34,25,-100,-100,-100,0,0,100,0.00,40.00,32,18,35,0.00
2013-3-17,36,27,18,-100,-100,-100,0,0,100,0.00,40.00,50,29,62,0.00
2013-3-18,27,20,12,-100,-100,-100,0,0,100,0.00,40.00,50,31,54,0.00
2013-3-19,34,25,14,-100,-100,-100,0,0,100,0.00,40.00,50,27,51,0.00
2013-3-20,41,27,7,-100,-100,-100,0,0,100,0.00,40.00,33,17,43,0.00
2013-3-21,36,28,19,-100,-100,-100,0,0,100,0.00,40.00,53,26,61,0.00
2013-3-22,23,18,10,-100,-100,-100,0,0,100,0.00,40.00,35,20,39,0.00
2013-3-23,10,7,-6,-100,-100,-100,0,0,100,0.00,40.00,28,15,37,0.00
2013-3-24,12,3,-8,-100,-100,-100,0,0,100,0.00,40.00,34,15,41,0.00
2013-3-25,25,13,1,-100,-100,-100,0,0,100,0.00,40.00,28,15,33,0.00
2013-3-26,37,20,1,-100,-100,-100,0,0,100,0.00,40.00,27,10,33,0.00
2013-3-27,45,32,21,-100,-100,-100,0,0,100,0.00,40.00,17,8,26,0.00
2013-3-28,48,36,23,-100,-100,-100,0,0,100,0.00,40.00,13,6,21,0.00
2013-3-29,45,36,27,-100,-100,-100,0,0,100,0.00,40.00,32,15,43,0.00
2013-3-30,45,34,27,-100,-100,-100,0,0,100,0.00,40.00,38,-25,42,0.00
2013-3-31,54,37,25,-100,-100,-100,0,0,100,0.00,40.00,36,17,45,0.00
2013-4-1,36,28,19,-100,-100,-100,0,0,100,0.00,40.00,20,-206,24,0.00
2013-4-2,30,28,23,-100,-100,-100,0,0,100,0.00,40.00,16,-522,19,0.00
2013-4-3,50,35,23,-100,-100,-100,0,0,100,0.00,40.00,30,12,35,0.00
2013-4-4,54,41,28,-100,-100,-100,0,0,100,0.00,40.00,22,11,31,0.00
2013-4-5,54,44,34,-100,-100,-100,0,0,100,0.00,40.00,36,20,46,0.00
2013-4-6,45,36,28,-100,-100,-100,0,0,100,0.00,40.00,38,24,45,0.00
2013-4-7,45,34,28,-100,-100,-100,0,0,100,0.00,40.00,41,-247,50,0.00
2013-4-8,45,28,12,-100,-100,-100,0,0,100,0.00,40.00,50,-158,51,0.00
2013-4-9,9,5,1,-100,-100,-100,0,0,100,0.00,40.00,19,-348,24,0.00
2013-4-10,19,10,-4,-100,-100,-100,0,0,100,0.00,40.00,36,25,44,0.00
2013-4-11,34,28,19,-100,-100,-100,0,0,100,0.00,40.00,51,26,52,0.00
2013-4-12,37,28,18,-100,-100,-100,0,0,100,0.00,40.00,33,13,35,0.00
2013-4-13,45,36,23,-100,-100,-100,0,0,100,0.00,40.00,42,-121,52,0.00
2013-4-14,28,22,18,-100,-100,-100,0,0,100,0.00,40.00,52,-102,61,0.00
2013-4-15,21,15,12,-100,-100,-100,0,0,100,0.00,40.00,24,13,28,0.00
2013-4-16,19,15,12,-100,-100,-100,0,0,100,0.00,40.00,30,-594,52,0.00
2013-4-17,18,12,5,-100,-100,-100,0,0,100,0.00,40.00,26,-806,35,0.00
2013-4-18,19,8,1,-100,-100,-100,0,0,100,0.00,40.00,50,-433,52,0.00
2013-4-19,32,24,18,-100,-100,-100,0,0,100,0.00,40.00,50,33,53,0.00
2013-4-20,37,31,27,-100,-100,-100,0,0,100,0.00,40.00,29,18,36,0.00
2013-4-21,39,34,28,-100,-100,-100,0,0,100,0.00,40.00,36,22,47,0.00
2013-4-22,36,21,12,-100,-100,-100,0,0,100,0.00,40.00,28,15,33,0.00
2013-4-23,23,15,5,-100,-100,-100,0,0,100,0.00,40.00,21,10,25,0.00
2013-4-24,36,26,16,-100,-100,-100,0,0,100,0.00,40.00,28,18,36,0.00
2013-4-25,48,36,18,-100,-100,-100,0,0,100,0.00,40.00,31,13,39,0.00
2013-4-26,52,38,25,-100,-100,-100,0,0,100,0.00,40.00,9,6,14,0.00
2013-4-27,55,43,25,-100,-100,-100,0,0,100,0.00,40.00,29,13,34,0.00
2013-4-28,59,47,39,-100,-100,-100,0,0,100,0.00,40.00,40,25,46,0.00
2013-4-29,59,48,32,-100,-100,-100,0,0,100,0.00,40.00,41,22,50,0.00
2013-4-30,45,34,25,-100,-100,-100,0,0,100,0.00,40.00,25,-492,25,0.00
2013-5-1,25,18,9,-100,-100,-100,0,0,100,0.00,40.00,67,-699,95,0.00
2013-5-2,30,18,-2,-100,-100,-100,0,0,100,0.00,40.00,18,-125,21,0.00
2013-5-3,43,32,21,-100,-100,-100,0,0,100,0.00,40.00,24,12,27,0.00
2013-5-4,37,34,30,-100,-100,-100,0,0,100,0.00,40.00,21,12,25,0.00
2013-5-5,41,33,23,-100,-100,-100,0,0,100,0.00,40.00,25,14,32,0.00
2013-5-6,52,43,28,-100,-100,-100,0,0,100,0.00,40.00,15,7,19,0.00
2013-5-7,52,42,34,-100,-100,-100,0,0,100,0.00,40.00,22,10,25,0.00
2013-5-8,50,41,34,-100,-100,-100,0,0,100,0.00,40.00,25,12,34,0.00
2013-5-9,48,40,34,-100,-100,-100,0,0,100,0.00,40.00,18,8,25,0.00
2013-5-10,50,42,32,-100,-100,-100,0,0,100,0.00,40.00,26,13,35,0.00
2013-5-11,57,42,30,-100,-100,-100,0,0,100,0.00,40.00,24,7,26,0.00
2013-5-12,64,52,34,-100,-100,-100,0,0,100,0.00,40.00,24,-34,33,0.00
2013-5-13,72,58,46,-100,-100,-100,0,0,100,0.00,40.00,21,-34,30,0.00
2013-5-14,70,60,46,-100,-100,-100,0,0,100,0.00,40.00,31,11,38,0.00
2013-5-15,66,54,45,-100,-100,-100,0,0,100,0.00,40.00,21,12,26,0.00
2013-5-16,66,53,43,-100,-100,-100,0,0,100,0.00,40.00,20,11,32,0.00
2013-5-17,72,56,45,-100,-100,-100,0,0,100,0.00,40.00,26,10,26,0.00
2013-5-18,57,48,39,-100,-100,-100,0,0,100,0.00,40.00,36,18,43,0.00
2013-5-19,48,41,37,-100,-100,-100,0,0,100,0.00,40.00,35,26,45,0.00
2013-5-20,43,37,34,-100,-100,-100,0,0,100,0.00,40.00,43,28,55,0.00
2013-5-21,52,40,30,-100,-100,-100,0,0,100,0.00,40.00,34,23,40,0.00
2013-5-22,57,46,30,-100,-100,-100,0,0,100,0.00,40.00,20,10,29,0.00
2013-5-23,48,40,36,-100,-100,-100,0,0,100,0.00,40.00,32,23,43,0.00
2013-5-24,66,54,39,-100,-100,-100,0,0,100,0.00,40.00,28,12,35,0.00
2013-5-25,70,58,39,-100,-100,-100,0,0,100,0.00,40.00,21,8,25,0.00
2013-5-26,68,54,37,-100,-100,-100,0,0,100,0.00,40.00,47,10,57,0.00
2013-5-27,64,55,41,-100,-100,-100,0,0,100,0.00,40.00,52,13,56,0.00
2013-5-28,61,49,36,-100,-100,-100,0,0,100,0.00,40.00,20,-28,24,0.00
2013-5-29,50,42,36,-100,-100,-100,0,0,100,0.00,40.00,15,7,18,0.00
2013-5-30,50,43,36,-100,-100,-100,0,0,100,0.00,40.00,25,15,27,0.00
2013-5-31,50,42,34,-100,-100,-100,0,0,100,0.00,40.00,22,16,27,0.00
2013-6-1,55,44,34,-100,-100,-100,0,0,100,0.00,40.00,17,9,22,0.00
2013-6-2,64,50,36,-100,-100,-100,0,0,100,0.00,40.00,10,4,11,0.00
2013-6-3,70,60,41,-100,-100,-100,0,0,100,0.00,40.00,16,8,22,0.00
2013-6-4,59,45,30,-100,-100,-100,0,0,100,0.00,40.00,14,5,17,0.00
2013-6-5,55,44,34,-100,-100,-100,0,0,100,0.00,40.00,7,4,9,0.00
2013-6-6,64,52,30,-100,-100,-100,0,0,100,0.00,40.00,9,3,11,0.00
2013-6-7,68,58,41,-100,-100,-100,0,0,100,0.00,40.00,10,3,12,0.00
2013-6-8,64,57,50,-100,-100,-100,0,0,100,0.00,40.00,17,10,20,0.00
2013-6-9,75,63,36,-100,-100,-100,0,0,100,0.00,40.00,11,5,12,0.00
2013-6-10,81,68,54,-100,-100,-100,0,0,100,0.00,40.00,16,6,24,0.00
2013-6-11,77,69,55,-100,-100,-100,0,0,100,0.00,40.00,14,7,19,0.00
2013-6-12,72,63,45,-100,-100,-100,0,0,100,0.00,40.00,11,6,15,0.00
2013-6-13,72,61,46,-100,-100,-100,0,0,100,0.00,40.00,10,4,13,0.00
2013-6-14,73,61,50,-100,-100,-100,0,0,100,0.00,40.00,12,6,14,0.00
2013-6-15,68,59,37,-100,-100,-100,0,0,100,0.00,40.00,10,5,11,0.00
2013-6-16,68,58,39,-100,-100,-100,0,0,100,0.00,40.00,17,6,21,0.00
2013-6-17,66,58,43,-100,-100,-100,0,0,100,0.00,40.00,9,4,10,0.00
2013-6-18,70,57,46,-100,-100,-100,0,0,100,0.00,40.00,10,5,14,0.00
2013-6-19,77,63,43,-100,-100,-100,0,0,100,0.00,40.00,10,6,12,0.00
2013-6-20,70,56,46,-100,-100,-100,0,0,100,0.00,40.00,10,6,12,0.00
2013-6-22,70,62,48,-100,-100,-100,0,0,100,0.00,40.00,11,6,13,0.00
2013-6-23,68,57,43,-100,-100,-100,0,0,100,0.00,40.00,10,6,13,0.00
2013-6-24,73,62,46,-100,-100,-100,0,0,100,0.00,40.00,14,6,16,0.00
2013-6-25,68,61,50,-100,-100,-100,0,0,100,0.00,40.00,14,8,18,0.00
2013-6-26,79,71,54,-100,-100,-100,0,0,100,0.00,40.00,9,4,12,0.00
2013-6-27,82,68,55,-100,-100,-100,0,0,100,0.00,40.00,12,5,15,0.00
2013-6-28,81,67,50,-100,-100,-100,0,0,100,0.00,40.00,10,4,12,0.00
2013-6-29,75,65,48,-100,-100,-100,0,0,100,0.00,40.00,9,3,10,0.00
2013-6-30,68,58,52,-100,-100,-100,0,0,100,0.00,40.00,6,3,8,0.00
2013-7-1,64,55,46,-100,-100,-100,0,0,100,0.00,40.00,10,3,14,0.00
2013-7-2,68,59,45,-100,-100,-100,0,0,100,0.00,40.00,8,3,9,0.00
2013-7-3,73,61,45,-100,-100,-100,0,0,100,0.00,40.00,10,4,13,0.00
2013-7-4,75,68,54,-100,-100,-100,0,0,100,0.00,40.00,6,4,9,0.00
2013-7-5,73,61,54,-100,-100,-100,0,0,100,0.00,40.00,12,3,14,0.00
2013-7-6,77,63,54,-100,-100,-100,0,0,100,0.00,40.00,10,6,15,0.00
2013-7-7,75,63,52,-100,-100,-100,0,0,100,0.00,40.00,10,4,12,0.00
2013-7-8,75,62,54,-100,-100,-100,0,0,100,0.00,40.00,12,5,15,0.00
2013-7-9,79,67,54,-100,-100,-100,0,0,100,0.00,40.00,9,5,13,0.00
2013-7-10,77,62,54,-100,-100,-100,0,0,100,0.00,40.00,10,5,12,0.00
2013-7-11,81,70,52,-100,-100,-100,0,0,100,0.00,40.00,11,5,14,0.00
2013-7-12,72,64,55,-100,-100,-100,0,0,100,0.00,40.00,11,7,14,0.00
2013-7-13,72,62,52,-100,-100,-100,0,0,100,0.00,40.00,6,2,8,0.00
2013-7-14,64,58,52,-100,-100,-100,0,0,100,0.00,40.00,10,4,12,0.00
2013-7-15,66,58,55,-100,-100,-100,0,0,100,0.00,40.00,11,6,12,0.00
2013-7-16,68,59,45,-100,-100,-100,0,0,100,0.00,40.00,10,7,13,0.00
2013-7-17,72,60,50,-100,-100,-100,0,0,100,0.00,40.00,8,5,11,0.00
2013-7-18,77,66,55,-100,-100,-100,0,0,100,0.00,40.00,11,6,13,0.00
2013-7-19,68,61,50,-100,-100,-100,0,0,100,0.00,40.00,8,4,12,0.00
2013-7-20,72,60,52,-100,-100,-100,0,0,100,0.00,40.00,8,3,13,0.00
2013-7-21,79,61,48,-100,-100,-100,0,0,100,0.00,40.00,6,3,9,0.00
2013-7-22,81,68,54,-100,-100,-100,0,0,100,0.00,40.00,10,5,13,0.00
2013-7-23,77,66,54,-100,-100,-100,0,0,100,0.00,40.00,7,4,8,0.00
2013-7-24,68,60,52,-100,-100,-100,0,0,100,0.00,40.00,16,5,17,0.00
2013-7-25,64,58,50,-100,-100,-100,0,0,100,0.00,40.00,10,5,13,0.00
2013-7-26,75,59,45,-100,-100,-100,0,0,100,0.00,40.00,7,3,8,0.00
2013-7-27,70,59,48,-100,-100,-100,0,0,100,0.00,40.00,9,4,11,0.00
2013-7-28,66,55,50,-100,-100,-100,0,0,100,0.00,40.00,8,4,9,0.00
2013-7-29,66,57,52,-100,-100,-100,0,0,100,0.00,40.00,11,6,14,0.00
2013-7-30,72,60,45,-100,-100,-100,0,0,100,0.00,40.00,10,5,14,0.00
2013-7-31,73,58,46,-100,-100,-100,0,0,100,0.00,40.00,5,2,7,0.00
2013-8-1,79,61,50,-100,-100,-100,0,0,100,0.00,40.00,15,5,18,0.00
2013-8-2,77,67,55,-100,-100,-100,0,0,100,0.00,40.00,12,7,16,0.00
2013-8-3,73,60,52,-100,-100,-100,0,0,100,0.00,40.00,7,4,14,0.00
2013-8-4,75,65,50,-100,-100,-100,0,0,100,0.00,40.00,9,5,11,0.00
2013-8-5,72,62,52,-100,-100,-100,0,0,100,0.00,40.00,14,6,16,0.00
2013-8-6,73,63,54,-100,-100,-100,0,0,100,0.00,40.00,11,6,12,0.00
2013-8-7,63,54,45,-100,-100,-100,0,0,100,0.00,40.00,10,4,11,0.00
2013-8-8,63,52,45,-100,-100,-100,0,0,100,0.00,40.00,12,3,14,0.00
2013-8-9,64,56,39,-100,-100,-100,0,0,100,0.00,40.00,8,3,12,0.00
2013-8-10,72,59,43,-100,-100,-100,0,0,100,0.00,40.00,10,4,12,0.00
2013-8-11,68,58,52,-100,-100,-100,0,0,100,0.00,40.00,10,4,11,0.00
2013-8-12,68,54,45,-100,-100,-100,0,0,100,0.00,40.00,11,4,14,0.00
2013-8-13,63,52,43,-100,-100,-100,0,0,100,0.00,40.00,8,4,10,0.00
2013-8-14,70,54,45,-100,-100,-100,0,0,100,0.00,40.00,16,3,18,0.00
2013-8-15,72,55,46,-100,-100,-100,0,0,100,0.00,40.00,11,4,15,0.00
2013-8-16,77,65,50,-100,-100,-100,0,0,100,0.00,40.00,7,4,12,0.00
2013-8-17,79,66,50,-100,-100,-100,0,0,100,0.00,40.00,6,3,10,0.00
2013-8-18,75,66,54,-100,-100,-100,0,0,100,0.00,40.00,11,5,13,0.00
2013-8-19,81,67,54,-100,-100,-100,0,0,100,0.00,40.00,7,4,10,0.00
2013-8-20,79,69,55,-100,-100,-100,0,0,100,0.00,40.00,8,5,14,0.00
2013-8-21,72,64,55,-100,-100,-100,0,0,100,0.00,40.00,9,5,10,0.00
2013-8-22,68,59,50,-100,-100,-100,0,0,100,0.00,40.00,11,4,13,0.00
2013-8-23,72,58,50,-100,-100,-100,0,0,100,0.00,40.00,9,5,14,0.00
2013-8-24,70,60,50,-100,-100,-100,0,0,100,0.00,40.00,12,5,15,0.00
2013-8-25,70,61,52,-100,-100,-100,0,0,100,0.00,40.00,7,4,10,0.00
2013-8-26,72,62,50,-100,-100,-100,0,0,100,0.00,40.00,11,5,12,0.00
2013-8-27,73,64,54,-100,-100,-100,0,0,100,0.00,40.00,7,3,10,0.00
2013-8-28,75,69,59,-100,-100,-100,0,0,100,0.00,40.00,6,4,10,0.00
2013-8-29,77,64,54,-100,-100,-100,0,0,100,0.00,40.00,9,4,13,0.00
2013-8-30,79,65,54,-100,-100,-100,0,0,100,0.00,40.00,6,3,8,0.00
2013-8-31,75,62,57,-100,-100,-100,0,0,100,0.00,40.00,10,5,11,0.00
2013-9-1,66,58,50,-100,-100,-100,0,0,100,0.00,40.00,11,6,12,0.00
2013-9-2,75,66,48,-100,-100,-100,0,0,100,0.00,40.00,8,4,12,0.00
2013-9-3,79,66,54,-100,-100,-100,0,0,100,0.00,40.00,11,4,13,0.00
2013-9-4,77,68,54,-100,-100,-100,0,0,100,0.00,40.00,9,4,12,0.00
2013-9-5,75,64,55,-100,-100,-100,0,0,100,0.00,40.00,5,2,8,0.00
2013-9-6,77,64,57,-100,-100,-100,0,0,100,0.00,40.00,9,5,10,0.00
2013-9-7,75,63,54,-100,-100,-100,0,0,100,0.00,40.00,9,4,13,0.00
2013-9-8,72,60,52,-100,-100,-100,0,0,100,0.00,40.00,12,4,13,0.00
2013-9-9,63,55,48,-100,-100,-100,0,0,100,0.00,40.00,12,4,13,0.00
2013-9-10,52,49,48,-100,-100,-100,0,0,100,0.00,40.00,7,-43,9,0.00
2013-9-11,52,50,48,-100,-100,-100,0,0,100,0.00,40.00,8,5,10,0.00
2013-9-12,50,48,48,-100,-100,-100,0,0,100,0.00,40.00,7,6,12,0.00
2013-9-13,61,54,48,-100,-100,-100,0,0,100,0.00,40.00,6,3,6,0.00
2013-9-14,63,53,46,-100,-100,-100,0,0,100,0.00,40.00,8,-47,10,0.00
2013-9-15,48,47,46,-100,-100,-100,0,0,100,0.00,40.00,7,4,9,0.00
2013-9-16,59,52,43,-100,-100,-100,0,0,100,0.00,40.00,6,4,8,0.00
2013-9-17,68,55,46,-100,-100,-100,0,0,100,0.00,40.00,9,4,10,0.00
2013-9-18,59,55,50,-100,-100,-100,0,0,100,0.00,40.00,7,4,10,0.00
2013-9-19,55,47,36,-100,-100,-100,0,0,100,0.00,40.00,10,5,11,0.00
2013-9-20,61,48,30,-100,-100,-100,0,0,100,0.00,40.00,6,3,9,0.00
2013-9-21,68,56,45,-100,-100,-100,0,0,100,0.00,40.00,13,5,17,0.00
2013-9-22,63,52,43,-100,-100,-100,0,0,100,0.00,40.00,10,4,13,0.00
2013-9-23,50,42,39,-100,-100,-100,0,0,100,0.00,40.00,21,12,22,0.00
2013-9-24,57,49,39,-100,-100,-100,0,0,100,0.00,40.00,10,5,11,0.00
2013-9-25,63,56,41,-100,-100,-100,0,0,100,0.00,40.00,11,6,14,0.00
2013-9-26,55,48,34,-100,-100,-100,0,0,100,0.00,40.00,9,5,12,0.00
2013-9-27,45,37,30,-100,-100,-100,0,0,100,0.00,40.00,14,9,17,0.00
2013-9-28,50,36,28,-100,-100,-100,0,0,100,0.00,40.00,21,11,26,0.00
2013-9-29,57,48,36,-100,-100,-100,0,0,100,0.00,40.00,14,9,20,0.00
2013-9-30,64,55,48,-100,-100,-100,0,0,100,0.00,40.00,15,8,18,0.00
2013-10-1,54,49,46,-100,-100,-100,0,0,100,0.00,40.00,8,4,11,0.00
2013-10-2,63,50,39,-100,-100,-100,0,0,100,0.00,40.00,10,4,10,0.00
2013-10-3,48,42,30,-100,-100,-100,0,0,100,0.00,40.00,99,7,99,0.00
2013-10-4,30,25,23,-100,-100,-100,0,0,100,0.00,40.00,99,99,99,0.00
2013-10-9,50,44,36,-100,-100,-100,0,0,100,0.00,40.00,18,12,21,0.00
2013-10-10,46,39,32,-100,-100,-100,0,0,100,0.00,40.00,50,14,52,0.00
2013-10-11,41,35,30,-100,-100,-100,0,0,100,0.00,40.00,53,28,66,0.00
2013-10-12,43,35,30,-100,-100,-100,0,0,100,0.00,40.00,15,10,19,0.00
2013-10-13,52,43,30,-100,-100,-100,0,0,100,0.00,40.00,20,8,24,0.00
2013-10-14,39,31,23,-100,-100,-100,0,0,100,0.00,40.00,35,20,43,0.00
2013-10-15,27,22,19,-100,-100,-100,0,0,100,0.00,40.00,35,19,40,0.00
2013-10-16,36,26,19,-100,-100,-100,0,0,100,0.00,40.00,31,16,36,0.00
2013-10-17,37,31,23,-100,-100,-100,0,0,100,0.00,40.00,25,12,39,0.00
2013-10-18,30,25,21,-100,-100,-100,0,0,100,0.00,40.00,34,20,43,0.00
2013-10-19,46,35,27,-100,-100,-100,0,0,100,0.00,40.00,39,26,50,0.00
2013-10-20,39,32,23,-100,-100,-100,0,0,100,0.00,40.00,37,20,41,0.00
2013-10-21,43,32,19,-100,-100,-100,0,0,100,0.00,40.00,33,17,34,0.00
2013-10-22,52,43,34,-100,-100,-100,0,0,100,0.00,40.00,25,13,36,0.00
2013-10-23,55,42,34,-100,-100,-100,0,0,100,0.00,40.00,19,8,23,0.00
2013-10-24,55,39,27,-100,-100,-100,0,0,100,0.00,40.00,14,5,15,0.00
2013-10-25,55,45,30,-100,-100,-100,0,0,100,0.00,40.00,24,13,32,0.00
2013-10-26,55,41,30,-100,-100,-100,0,0,100,0.00,40.00,19,6,29,0.00
2013-10-27,54,43,36,-100,-100,-100,0,0,100,0.00,40.00,25,15,37,0.00
2013-10-28,43,28,21,-100,-100,-100,0,0,100,0.00,40.00,15,11,24,0.00
2013-10-29,41,28,21,-100,-100,-100,0,0,100,0.00,40.00,29,10,39,0.00
2013-10-30,34,29,25,-100,-100,-100,0,0,100,0.00,40.00,33,19,43,0.00
2013-10-31,32,28,23,-100,-100,-100,0,0,100,0.00,40.00,53,37,69,0.00
2013-11-1,36,30,25,-100,-100,-100,0,0,100,0.00,40.00,36,23,41,0.00
2013-11-2,55,39,25,-100,-100,-100,0,0,100,0.00,40.00,23,12,32,0.00
2013-11-3,48,38,19,-100,-100,-100,0,0,100,0.00,40.00,32,18,41,0.00
2013-11-4,27,21,16,-100,-100,-100,0,0,100,0.00,40.00,33,17,43,0.00
2013-11-5,23,18,14,-100,-100,-100,0,0,100,0.00,40.00,34,19,40,0.00
2013-11-6,30,25,18,-100,-100,-100,0,0,100,0.00,40.00,36,26,47,0.00
2013-11-7,45,36,27,-100,-100,-100,0,0,100,0.00,40.00,29,16,45,0.00
2013-11-8,45,40,36,-100,-100,-100,0,0,100,0.00,40.00,53,30,68,0.00
2013-11-9,52,39,30,-100,-100,-100,0,0,100,0.00,40.00,27,11,33,0.00
2013-11-10,52,40,27,-100,-100,-100,0,0,100,0.00,40.00,17,8,30,0.00
2013-11-11,52,39,23,-100,-100,-100,0,0,100,0.00,40.00,26,15,35,0.00
2013-11-12,52,39,23,-100,-100,-100,0,0,100,0.00,40.00,11,6,16,0.00
2013-11-13,52,41,30,-100,-100,-100,0,0,100,0.00,40.00,24,14,31,0.00
2013-11-14,45,35,27,-100,-100,-100,0,0,100,0.00,40.00,38,13,39,0.00
2013-11-15,45,33,23,-100,-100,-100,0,0,100,0.00,40.00,27,14,39,0.00
2013-11-16,36,27,23,-100,-100,-100,0,0,100,0.00,40.00,53,24,61,0.00
2013-11-17,32,26,19,-100,-100,-100,0,0,100,0.00,40.00,62,34,71,0.00
2013-11-18,46,37,27,-100,-100,-100,0,0,100,0.00,40.00,28,15,38,0.00
2013-11-19,41,36,25,-100,-100,-100,0,0,100,0.00,40.00,34,23,50,0.00
2013-11-20,41,34,19,-100,-100,-100,0,0,100,0.00,40.00,29,17,40,0.00
2013-11-21,19,10,7,-100,-100,-100,0,0,100,0.00,40.00,15,10,20,0.00
2013-11-22,30,16,3,-100,-100,-100,0,0,100,0.00,40.00,11,4,15,0.00
2013-11-23,23,18,14,-100,-100,-100,0,0,100,0.00,40.00,29,14,34,0.00
2013-11-24,37,26,18,-100,-100,-100,0,0,100,0.00,40.00,25,15,34,0.00
2013-11-25,34,26,21,-100,-100,-100,0,0,100,0.00,40.00,21,14,31,0.00
2013-11-26,36,26,19,-100,-100,-100,0,0,100,0.00,40.00,23,14,29,0.00
2013-11-27,46,34,27,-100,-100,-100,0,0,100,0.00,40.00,30,16,40,0.00
2013-11-28,43,32,23,-100,-100,-100,0,0,100,0.00,40.00,12,6,16,0.00
2013-11-29,43,36,27,-100,-100,-100,0,0,100,0.00,40.00,36,19,42,0.00
2013-11-30,41,31,27,-100,-100,-100,0,0,100,0.00,40.00,30,18,44,0.00
2013-12-1,36,32,27,-100,-100,-100,0,0,100,0.00,40.00,54,31,59,0.00
2013-12-2,37,34,32,-100,-100,-100,0,0,100,0.00,40.00,37,26,50,0.00
2013-12-3,34,24,3,-100,-100,-100,0,0,100,0.00,40.00,26,11,35,0.00
2013-12-4,1,-6,-11,-100,-100,-100,0,0,100,0.00,40.00,24,17,31,0.00
2013-12-5,3,-10,-18,-100,-100,-100,0,0,100,0.00,40.00,17,5,20,0.00
2013-12-6,7,-7,-17,-100,-100,-100,0,0,100,0.00,40.00,9,3,11,0.00
2013-12-7,5,1,-11,-100,-100,-100,0,0,100,0.00,40.00,15,5,15,0.00
2013-12-8,9,5,1,-100,-100,-100,0,0,100,0.00,40.00,50,22,53,0.00
2013-12-9,9,2,-8,-100,-100,-100,0,0,100,0.00,40.00,53,36,64,0.00
2013-12-10,23,15,9,-100,-100,-100,0,0,100,0.00,40.00,52,35,62,0.00
2013-12-11,27,19,9,-100,-100,-100,0,0,100,0.00,40.00,35,20,43,0.00
2013-12-12,41,32,23,-100,-100,-100,0,0,100,0.00,40.00,33,16,39,0.00
2013-12-13,32,25,19,-100,-100,-100,0,0,100,0.00,40.00,30,18,42,0.00
2013-12-14,27,22,16,-100,-100,-100,0,0,100,0.00,40.00,51,32,53,0.00
2013-12-15,37,30,23,-100,-100,-100,0,0,100,0.00,40.00,59,38,65,0.00
2013-12-16,41,34,28,-100,-100,-100,0,0,100,0.00,40.00,46,26,52,0.00
2013-12-17,43,34,28,-100,-100,-100,0,0,100,0.00,40.00,53,28,57,0.00
2013-12-18,46,39,34,-100,-100,-100,0,0,100,0.00,40.00,37,22,49,0.00
2013-12-19,43,32,12,-100,-100,-100,0,0,100,0.00,40.00,35,9,46,0.00
2013-12-20,27,16,7,-100,-100,-100,0,0,100,0.00,40.00,27,11,37,0.00
2013-12-21,21,17,14,-100,-100,-100,0,0,100,0.00,40.00,25,16,32,0.00
2013-12-22,21,17,10,-100,-100,-100,0,0,100,0.00,40.00,37,21,50,0.00
2013-12-23,28,23,14,-100,-100,-100,0,0,100,0.00,40.00,52,31,65,0.00
2013-12-24,30,23,12,-100,-100,-100,0,0,100,0.00,40.00,39,25,55,0.00
2013-12-25,28,20,14,-100,-100,-100,0,0,100,0.00,40.00,40,25,52,0.00
2013-12-26,34,27,23,-100,-100,-100,0,0,100,0.00,40.00,36,22,44,0.00
2013-12-27,43,31,25,-100,-100,-100,0,0,100,0.00,40.00,31,15,44,0.00
2013-12-28,34,28,14,-100,-100,-100,0,0,100,0.00,40.00,35,18,43,0.00
2013-12-29,23,16,5,-100,-100,-100,0,0,100,0.00,40.00,51,21,54,0.00
2013-12-30,28,23,19,-100,-100,-100,0,0,100,0.00,40.00,50,33,52,0.00
2013-12-31,34,30,27,-100,-100,-100,0,0,100,0.00,40.00,54,36,66,0.00
2014-1-1,28,21,16,-100,-100,-100,0,0,100,0.00,40.00,31,21,44,0.00
2014-1-2,34,24,18,-100,-100,-100,0,0,100,0.00,40.00,45,28,54,0.00